createdAt,value
2023-03-11T00:02:30.796Z,99144.06
2023-03-11T00:05:18.470Z,99148.34
2023-03-11T00:08:05.547Z,99158.63
2023-03-11T00:11:00.581Z,99174.81
2023-03-11T00:13:45.433Z,99185.09
2023-03-11T00:16:30.400Z,99194.47
2023-03-11T00:19:15.412Z,99205.59
2023-03-11T00:22:02.249Z,99212.44
2023-03-11T00:24:47.073Z,99230.38
2023-03-11T00:27:31.979Z,99235.50
2023-03-11T00:30:18.683Z,99244.91
2023-03-11T00:33:04.404Z,99250.03
2023-03-11T00:35:49.897Z,99257.72
2023-03-11T00:38:34.719Z,99257.72
2023-03-11T00:41:20.928Z,99266.28
2023-03-11T00:44:06.186Z,99279.06
2023-03-11T00:46:51.217Z,99278.22
2023-03-11T00:49:36.894Z,99296.19
2023-03-11T00:52:21.768Z,99299.59
2023-03-11T00:55:08.060Z,99302.16
2023-03-11T00:57:54.909Z,99319.25
2023-03-11T01:00:40.126Z,99318.38
2023-03-11T01:03:24.989Z,99323.53
2023-03-11T01:06:10.021Z,99333.78
2023-03-11T01:08:55.437Z,99338.03
2023-03-11T01:11:40.143Z,99348.28
2023-03-11T01:14:25.190Z,99349.13
2023-03-11T01:17:10.258Z,99354.28
2023-03-11T01:19:55.284Z,99364.50
2023-03-11T01:22:40.286Z,99377.34
2023-03-11T01:25:25.898Z,99379.91
2023-03-11T01:28:11.368Z,99384.16
2023-03-11T01:30:56.603Z,99394.41
2023-03-11T01:33:42.182Z,99390.13
2023-03-11T01:36:27.068Z,99403.81
2023-03-11T01:39:11.972Z,99408.94
2023-03-11T01:41:56.956Z,99423.47
2023-03-11T01:44:42.504Z,99420.03
2023-03-11T01:47:36.743Z,99438.00
2023-03-11T01:50:22.713Z,99425.16
2023-03-11T01:53:09.364Z,99449.06
2023-03-11T01:55:55.498Z,99451.63
2023-03-11T01:58:46.596Z,99467.03
2023-03-11T02:01:35.979Z,99457.59
2023-03-11T02:04:27.113Z,99474.69
2023-03-11T02:07:14.487Z,99481.53
2023-03-11T02:09:59.851Z,99498.59
2023-03-11T02:12:46.570Z,99499.47
2023-03-11T02:15:31.639Z,99501.16
2023-03-11T02:18:22.117Z,99506.31
2023-03-11T02:21:16.546Z,99521.69
2023-03-11T02:24:17.496Z,99519.13
2023-03-11T02:27:12.036Z,99524.25
2023-03-11T02:30:02.547Z,99527.66
2023-03-11T02:32:49.416Z,99533.66
2023-03-11T02:35:35.854Z,99548.19
2023-03-11T02:38:20.806Z,99549.91
2023-03-11T02:41:06.693Z,99549.06
2023-03-11T02:43:52.817Z,99549.88
2023-03-11T02:46:42.628Z,99564.44
2023-03-11T02:49:29.858Z,99559.28
2023-03-11T02:52:15.232Z,99572.13
2023-03-11T02:55:01.275Z,99580.66
2023-03-11T02:57:50.798Z,99583.22
2023-03-11T03:00:36.468Z,99584.91
2023-03-11T03:03:23.154Z,99590.88
2023-03-11T03:06:09.184Z,99586.59
2023-03-11T03:08:55.962Z,99593.44
2023-03-11T03:11:41.749Z,99596.88
2023-03-11T03:14:28.212Z,99604.53
2023-03-11T03:17:13.536Z,99601.13
2023-03-11T03:19:58.993Z,99604.53
2023-03-11T03:22:44.832Z,99619.94
2023-03-11T03:25:30.260Z,99625.91
2023-03-11T03:28:18.931Z,99631.03
2023-03-11T03:31:12.458Z,99630.19
2023-03-11T03:33:59.222Z,99640.47
2023-03-11T03:36:44.317Z,99647.28
2023-03-11T03:39:30.786Z,99654.13
2023-03-11T03:42:15.935Z,99652.41
2023-03-11T03:45:01.109Z,99647.28
2023-03-11T03:47:45.938Z,99663.50
2023-03-11T03:50:31.167Z,99669.47
2023-03-11T03:53:15.966Z,99676.34
2023-03-11T03:56:08.862Z,99680.56
2023-03-11T03:58:54.207Z,99677.16
2023-03-11T04:01:39.128Z,99691.69
2023-03-11T04:04:24.269Z,99696.81
2023-03-11T04:07:09.350Z,99693.34
2023-03-11T04:09:54.267Z,99701.06
2023-03-11T04:12:39.120Z,99697.66
2023-03-11T04:15:24.176Z,99702.78
2023-03-11T04:18:09.330Z,99711.31
2023-03-11T04:20:54.424Z,99713.00
2023-03-11T04:23:39.353Z,99713.88
2023-03-11T04:26:24.576Z,99717.34
2023-03-11T04:29:09.830Z,99716.47
2023-03-11T04:31:54.894Z,99725.00
2023-03-11T04:34:41.059Z,99721.59
2023-03-11T04:37:29.822Z,99731.03
2023-03-11T04:40:15.482Z,99728.47
2023-03-11T04:43:00.411Z,99741.25
2023-03-11T04:45:45.743Z,99743.00
2023-03-11T04:48:30.738Z,99748.13
2023-03-11T04:51:15.930Z,99747.25
2023-03-11T04:54:00.974Z,99752.38
2023-03-11T04:56:46.136Z,99761.75
2023-03-11T04:59:31.151Z,99756.66
2023-03-11T05:02:16.348Z,99757.47
2023-03-11T05:05:01.674Z,99766.84
2023-03-11T05:07:47.505Z,99772.84
2023-03-11T05:10:33.736Z,99778.00
2023-03-11T05:13:19.574Z,99786.50
2023-03-11T05:16:05.209Z,99787.38
2023-03-11T05:18:50.235Z,99791.63
2023-03-11T05:21:35.440Z,99793.34
2023-03-11T05:24:20.537Z,99805.25
2023-03-11T05:27:05.688Z,99809.56
2023-03-11T05:29:50.809Z,99811.22
2023-03-11T05:32:36.520Z,99819.81
2023-03-11T05:35:21.890Z,99828.31
2023-03-11T05:38:08.034Z,99831.72
2023-03-11T05:40:53.972Z,99830.00
2023-03-11T05:43:38.967Z,99834.28
2023-03-11T05:46:24.105Z,99836.06
2023-03-11T05:49:08.952Z,99852.28
2023-03-11T05:51:58.864Z,99859.03
2023-03-11T05:54:44.247Z,99863.28
2023-03-11T05:57:29.408Z,99871.00
2023-03-11T06:00:14.733Z,99870.06
2023-03-11T06:03:00.267Z,99876.91
2023-03-11T06:05:46.701Z,99882.03
2023-03-11T06:08:34.315Z,99892.22
2023-03-11T06:11:19.544Z,99892.19
2023-03-11T06:14:06.294Z,99897.31
2023-03-11T06:16:51.425Z,99898.25
2023-03-11T06:19:36.319Z,99905.94
2023-03-11T06:22:21.430Z,99907.66
2023-03-11T06:25:06.942Z,99911.06
2023-03-11T06:27:53.274Z,99921.31
2023-03-11T06:30:38.086Z,99932.41
2023-03-11T06:33:24.014Z,99929.00
2023-03-11T06:36:10.885Z,99939.31
2023-03-11T06:38:56.652Z,99938.31
2023-03-11T06:41:42.246Z,99944.44
2023-03-11T06:44:27.407Z,99946.16
2023-03-11T06:47:12.625Z,99954.84
2023-03-11T06:49:57.594Z,99962.50
2023-03-11T06:52:42.744Z,99968.53
2023-03-11T06:55:27.749Z,99972.91
2023-03-11T06:58:13.571Z,99994.44
2023-03-11T07:01:02.536Z,99991.94
2023-03-11T07:03:48.946Z,99997.84
2023-03-11T07:06:33.982Z,100007.31
2023-03-11T07:09:18.778Z,100007.34
2023-03-11T07:12:06.365Z,100013.34
2023-03-11T07:14:56.122Z,100015.97
2023-03-11T07:17:40.967Z,100023.56
2023-03-11T07:20:26.266Z,100038.88
2023-03-11T07:23:12.764Z,100037.94
2023-03-11T07:25:57.773Z,100039.66
2023-03-11T07:28:42.925Z,100048.28
2023-03-11T07:31:30.411Z,100052.53
2023-03-11T07:34:17.660Z,100067.00
2023-03-11T07:37:03.632Z,100071.38
2023-03-11T07:39:49.326Z,100078.19
2023-03-11T07:42:35.717Z,100083.34
2023-03-11T07:45:20.829Z,100080.75
2023-03-11T07:48:05.732Z,100087.63
2023-03-11T07:51:00.553Z,100092.06
2023-03-11T07:53:46.224Z,100100.53
2023-03-11T07:56:34.239Z,100102.41
2023-03-11T07:59:21.326Z,100104.13
2023-03-11T08:02:06.879Z,100104.06
2023-03-11T08:04:52.374Z,100112.69
2023-03-11T08:07:37.314Z,100119.69
2023-03-11T08:10:28.996Z,100120.78
2023-03-11T08:13:17.682Z,100127.66
2023-03-11T08:16:09.168Z,100126.78
2023-03-11T08:18:58.903Z,100129.59
2023-03-11T08:21:53.914Z,100127.88
2023-03-11T08:24:41.223Z,100140.78
2023-03-11T08:27:28.603Z,100140.00
2023-03-11T08:30:15.135Z,100139.19
2023-03-11T08:33:00.552Z,100143.47
2023-03-11T08:35:45.760Z,100147.63
2023-03-11T08:38:31.080Z,100158.84
2023-03-11T08:41:16.278Z,100148.59
2023-03-11T08:44:01.752Z,100161.75
2023-03-11T08:46:47.677Z,100159.25
2023-03-11T08:49:34.054Z,100161.84
2023-03-11T08:52:19.248Z,100178.97
2023-03-11T08:55:05.124Z,100173.06
2023-03-11T08:57:51.100Z,100179.97
2023-03-11T09:00:36.133Z,100187.69
2023-03-11T09:03:21.473Z,100187.72
2023-03-11T09:06:11.099Z,100190.31
2023-03-11T09:08:57.609Z,100198.06
2023-03-11T09:11:42.838Z,100204.94
2023-03-11T09:14:27.987Z,100204.91
2023-03-11T09:17:14.691Z,100219.53
2023-03-11T09:20:00.129Z,100228.97
2023-03-11T09:22:45.662Z,100229.84
2023-03-11T09:25:30.567Z,100232.38
2023-03-11T09:28:15.842Z,100233.25
2023-03-11T09:31:01.001Z,100245.25
2023-03-11T09:33:47.458Z,100249.53
2023-03-11T09:36:32.371Z,100248.59
2023-03-11T09:39:17.413Z,100265.63
2023-03-11T09:42:11.393Z,100265.50
2023-03-11T09:45:04.285Z,100267.22
2023-03-11T09:48:01.668Z,100271.59
2023-03-11T09:51:10.428Z,100263.28
2023-03-11T09:54:03.639Z,100267.63
2023-03-11T09:56:49.029Z,100270.22
2023-03-11T09:59:37.191Z,100274.34
2023-03-11T10:02:26.671Z,100275.25
2023-03-11T10:05:20.594Z,100283.03
2023-03-11T10:08:33.273Z,100282.97
2023-03-11T10:11:30.893Z,100299.28
2023-03-11T10:14:40.257Z,100293.34
2023-03-11T10:17:43.976Z,100294.25
2023-03-11T10:20:51.121Z,100296.00
2023-03-11T10:24:10.257Z,100296.00
2023-03-11T10:27:01.994Z,100296.00
2023-03-11T10:30:02.753Z,100292.56
2023-03-11T10:32:58.536Z,100299.44
2023-03-11T10:35:48.049Z,100300.31
2023-03-11T10:38:38.386Z,100311.50
2023-03-11T10:41:26.409Z,100307.19
2023-03-11T10:44:17.367Z,100303.75
2023-03-11T10:47:03.378Z,100301.13
2023-03-11T10:49:48.794Z,100301.97
2023-03-11T10:52:44.864Z,100306.16
2023-03-11T10:55:30.170Z,100311.41
2023-03-11T10:58:19.245Z,100307.19
2023-03-11T11:01:17.947Z,100323.50
2023-03-11T11:04:03.958Z,100314.84
2023-03-11T11:06:49.159Z,100326.78
2023-03-11T11:09:33.927Z,100331.19
2023-03-11T11:12:21.264Z,100332.94
2023-03-11T11:15:07.227Z,100334.69
2023-03-11T11:17:55.885Z,100337.28
2023-03-11T11:20:59.574Z,100335.56
2023-03-11T11:23:50.160Z,100332.13
2023-03-11T11:26:35.632Z,100338.13
2023-03-11T11:29:20.487Z,100342.38
2023-03-11T11:32:26.159Z,100337.25
2023-03-11T11:35:14.756Z,100339.75
2023-03-11T11:38:05.896Z,100343.25
2023-03-11T11:40:52.342Z,100337.28
2023-03-11T11:44:02.367Z,100343.13
2023-03-11T11:46:57.236Z,100338.78
2023-03-11T11:49:51.925Z,100343.88
2023-03-11T11:52:47.343Z,100333.53
2023-03-11T11:55:33.614Z,100345.34
2023-03-11T11:58:19.300Z,100338.44
2023-03-11T12:01:14.546Z,100342.31
2023-03-11T12:04:28.464Z,100341.31
2023-03-11T12:07:31.927Z,100340.25
2023-03-11T12:10:39.290Z,100341.34
2023-03-11T12:13:57.569Z,100353.50
2023-03-11T12:17:01.982Z,100345.56
2023-03-11T12:20:00.421Z,100348.25
2023-03-11T12:23:11.196Z,100340.31
2023-03-11T12:26:22.041Z,100350.84
2023-03-11T12:29:19.850Z,100342.16
2023-03-11T12:32:06.581Z,100340.56
2023-03-11T12:34:54.815Z,100344.00
2023-03-11T12:37:46.934Z,100344.94
2023-03-11T12:40:58.637Z,100345.56
2023-03-11T12:43:47.800Z,100341.75
2023-03-11T12:47:11.656Z,100339.88
2023-03-11T12:50:34.917Z,100331.56
2023-03-11T12:53:21.230Z,100338.13
2023-03-11T12:56:25.288Z,100339.38
2023-03-11T12:59:41.792Z,100338.56
2023-03-11T13:03:17.919Z,100334.03
2023-03-11T13:06:15.010Z,100335.59
2023-03-11T13:09:01.647Z,100342.06
2023-03-11T13:11:48.350Z,100340.78
2023-03-11T13:14:35.094Z,100344.13
2023-03-11T13:17:26.759Z,100348.38
2023-03-11T13:20:47.585Z,100360.56
2023-03-11T13:23:37.872Z,100353.47
2023-03-11T13:26:33.073Z,100359.53
2023-03-11T13:29:21.124Z,100351.81
2023-03-11T13:32:40.575Z,100365.03
2023-03-11T13:35:44.357Z,100366.34
2023-03-11T13:39:03.725Z,100364.25
2023-03-11T13:41:49.831Z,100374.44
2023-03-11T13:44:46.154Z,100373.56
2023-03-11T13:47:36.686Z,100375.88
2023-03-11T13:50:43.682Z,100376.25
2023-03-11T13:53:34.835Z,100384.69
2023-03-11T13:56:33.300Z,100375.25
2023-03-11T13:59:27.227Z,100385.06
2023-03-11T14:02:19.326Z,100387.94
2023-03-11T14:05:07.201Z,100384.81
2023-03-11T14:07:54.013Z,100380.03
2023-03-11T14:10:41.938Z,100378.72
2023-03-11T14:13:38.904Z,100383.72
2023-03-11T14:16:35.666Z,100388.88
2023-03-11T14:19:21.182Z,100393.81
2023-03-11T14:22:08.278Z,100390.41
2023-03-11T14:24:53.751Z,100401.16
2023-03-11T14:27:39.525Z,100399.50
2023-03-11T14:30:30.152Z,100395.50
2023-03-11T14:33:22.149Z,100399.59
2023-03-11T14:36:13.673Z,100403.84
2023-03-11T14:38:58.643Z,100410.66
2023-03-11T14:41:43.943Z,100407.41
2023-03-11T14:44:34.329Z,100414.50
2023-03-11T14:47:30.499Z,100416.31
2023-03-11T14:50:21.343Z,100412.91
2023-03-11T14:53:13.837Z,100413.81
2023-03-11T14:56:21.215Z,100424.16
2023-03-11T14:59:15.436Z,100420.72
2023-03-11T15:02:39.549Z,100416.38
2023-03-11T15:05:33.596Z,100416.44
2023-03-11T15:08:21.896Z,100406.97
2023-03-11T15:11:14.006Z,100414.69
2023-03-11T15:14:17.687Z,100409.53
2023-03-11T15:17:32.870Z,100409.50
2023-03-11T15:20:34.424Z,100412.13
2023-03-11T15:23:22.562Z,100410.38
2023-03-11T15:26:19.114Z,100410.41
2023-03-11T15:29:16.687Z,100414.72
2023-03-11T15:32:38.604Z,100419.00
2023-03-11T15:35:28.830Z,100415.56
2023-03-11T15:38:25.562Z,100421.56
2023-03-11T15:41:11.206Z,100422.44
2023-03-11T15:44:00.404Z,100416.41
2023-03-11T15:46:47.436Z,100421.56
2023-03-11T15:49:33.613Z,100414.50
2023-03-11T15:52:22.140Z,100422.75
2023-03-11T15:55:08.321Z,100418.06
2023-03-11T15:58:04.766Z,100423.25
2023-03-11T16:00:56.366Z,100425.59
2023-03-11T16:03:41.715Z,100420.19
2023-03-11T16:06:26.987Z,100418.28
2023-03-11T16:09:15.500Z,100430.63
2023-03-11T16:12:02.461Z,100426.22
2023-03-11T16:14:48.995Z,100430.25
2023-03-11T16:17:48.951Z,100430.75
2023-03-11T16:20:44.561Z,100444.69
2023-03-11T16:23:50.184Z,100447.38
2023-03-11T16:26:35.736Z,100456.00
2023-03-11T16:29:23.114Z,100449.09
2023-03-11T16:32:11.174Z,100447.34
2023-03-11T16:34:56.184Z,100451.63
2023-03-11T16:37:43.700Z,100450.75
2023-03-11T16:40:29.915Z,100452.44
2023-03-11T16:43:15.349Z,100456.72
2023-03-11T16:46:00.235Z,100455.00
2023-03-11T16:48:45.790Z,100464.41
2023-03-11T16:51:31.206Z,100468.72
2023-03-11T16:54:19.152Z,100463.53
2023-03-11T16:57:04.144Z,100471.25
2023-03-11T16:59:49.345Z,100467.78
2023-03-11T17:02:35.399Z,100472.94
2023-03-11T17:05:20.506Z,100467.75
2023-03-11T17:08:08.527Z,100473.66
2023-03-11T17:10:56.120Z,100483.09
2023-03-11T17:13:41.564Z,100480.47
2023-03-11T17:16:26.916Z,100483.84
2023-03-11T17:19:15.682Z,100492.44
2023-03-11T17:22:00.846Z,100482.94
2023-03-11T17:24:45.715Z,100480.28
2023-03-11T17:27:32.492Z,100488.88
2023-03-11T17:30:35.640Z,100489.59
2023-03-11T17:33:21.252Z,100486.97
2023-03-11T17:36:08.894Z,100493.03
2023-03-11T17:41:57.734Z,100491.28
2023-03-11T17:44:51.487Z,100494.75
2023-03-11T17:47:37.377Z,100501.53
2023-03-11T17:50:23.705Z,100507.59
2023-03-11T17:53:10.122Z,100506.81
2023-03-11T17:55:55.333Z,100503.41
2023-03-11T17:58:40.959Z,100509.34
2023-03-11T18:01:27.937Z,100516.97
2023-03-11T18:04:13.209Z,100516.19
2023-03-11T18:06:58.201Z,100530.53
2023-03-11T18:09:43.519Z,100526.22
2023-03-11T18:12:28.435Z,100529.53
2023-03-11T18:15:16.567Z,100531.22
2023-03-11T18:18:02.816Z,100534.72
2023-03-11T18:20:48.213Z,100537.31
2023-03-11T18:23:35.114Z,100535.56
2023-03-11T18:26:20.625Z,100534.75
2023-03-11T18:29:05.544Z,100538.88
2023-03-11T18:31:50.837Z,100545.72
2023-03-11T18:34:35.990Z,100541.56
2023-03-11T18:37:21.425Z,100548.94
2023-03-11T18:40:07.363Z,100542.91
2023-03-11T18:42:53.038Z,100549.78
2023-03-11T18:45:39.484Z,100551.50
2023-03-11T18:48:27.889Z,100543.75
2023-03-11T18:51:13.980Z,100549.75
2023-03-11T18:54:01.844Z,100555.81
2023-03-11T18:56:46.983Z,100547.28
2023-03-11T18:59:31.914Z,100553.31
2023-03-11T19:02:18.299Z,100555.66
2023-03-11T19:05:04.366Z,100550.50
2023-03-11T19:07:49.532Z,100551.34
2023-03-11T19:10:34.458Z,100544.44
2023-03-11T19:13:20.952Z,100547.19
2023-03-11T19:16:08.182Z,100540.75
2023-03-11T19:18:55.052Z,100538.34
2023-03-11T19:21:41.838Z,100535.81
2023-03-11T19:24:26.952Z,100543.44
2023-03-11T19:27:13.070Z,100536.44
2023-03-11T19:29:58.189Z,100529.41
2023-03-11T19:32:43.180Z,100537.94
2023-03-11T19:35:29.181Z,100548.34
2023-03-11T19:38:14.016Z,100549.09
2023-03-11T19:41:05.078Z,100543.34
2023-03-11T19:43:50.352Z,100547.28
2023-03-11T19:46:36.205Z,100550.72
2023-03-11T19:49:21.935Z,100550.09
2023-03-11T19:52:10.061Z,100552.84
2023-03-11T19:54:58.572Z,100557.81
2023-03-11T19:57:43.800Z,100560.47
2023-03-11T20:00:31.676Z,100566.47
2023-03-11T20:03:17.634Z,100570.84
2023-03-11T20:06:05.417Z,100571.06
2023-03-11T20:08:51.050Z,100574.50
2023-03-11T20:11:40.631Z,100567.94
2023-03-11T20:14:27.853Z,100556.44
2023-03-11T20:17:14.654Z,100560.84
2023-03-11T20:20:02.719Z,100567.06
2023-03-11T20:22:48.079Z,100563.66
2023-03-11T20:25:35.771Z,100560.19
2023-03-11T20:28:23.448Z,100552.53
2023-03-11T20:31:14.637Z,100556.50
2023-03-11T20:34:01.835Z,100561.19
2023-03-11T20:36:48.903Z,100561.81
2023-03-11T20:39:35.995Z,100567.63
2023-03-11T20:42:24.590Z,100559.25
2023-03-11T20:45:11.943Z,100562.22
2023-03-11T20:47:58.007Z,100561.13
2023-03-11T20:50:45.210Z,100575.81
2023-03-11T20:53:31.687Z,100579.59
2023-03-11T20:56:19.684Z,100572.88
2023-03-11T20:59:07.715Z,100572.91
2023-03-11T21:01:54.656Z,100564.38
2023-03-11T21:04:42.942Z,100574.59
2023-03-11T21:07:27.978Z,100560.66
2023-03-11T21:10:14.510Z,100564.97
2023-03-11T21:12:59.978Z,100570.47
2023-03-11T21:15:47.336Z,100567.16
2023-03-11T21:18:32.729Z,100570.38
2023-03-11T21:21:18.855Z,100563.00
2023-03-11T21:24:05.101Z,100572.91
2023-03-11T21:26:50.207Z,100571.47
2023-03-11T21:29:35.300Z,100564.34
2023-03-11T21:32:20.420Z,100569.28
2023-03-11T21:35:06.831Z,100569.16
2023-03-11T21:37:55.260Z,100570.00
2023-03-11T21:40:43.612Z,100568.97
2023-03-11T21:43:30.329Z,100570.22
2023-03-11T21:46:18.455Z,100571.81
2023-03-11T21:49:03.780Z,100572.00
2023-03-11T21:51:49.013Z,100573.53
2023-03-11T21:54:35.644Z,100581.13
2023-03-11T21:57:24.294Z,100578.09
2023-03-11T22:00:11.255Z,100577.75
2023-03-11T22:02:58.100Z,100567.44
2023-03-11T22:05:43.476Z,100579.06
2023-03-11T22:08:28.692Z,100583.34
2023-03-11T22:11:19.540Z,100587.53
2023-03-11T22:14:06.458Z,100581.75
2023-03-11T22:16:52.416Z,100579.22
2023-03-11T22:19:40.107Z,100581.25
2023-03-11T22:22:26.810Z,100585.47
2023-03-11T22:25:12.054Z,100580.34
2023-03-11T22:27:57.543Z,100573.97
2023-03-11T22:30:42.576Z,100583.03
2023-03-11T22:33:27.959Z,100585.25
2023-03-11T22:36:14.863Z,100584.31
2023-03-11T22:39:05.125Z,100587.03
2023-03-11T22:41:50.310Z,100585.41
2023-03-11T22:44:35.423Z,100587.69
2023-03-11T22:47:21.096Z,100584.31
2023-03-11T22:50:06.149Z,100586.19
2023-03-11T22:52:51.822Z,100583.47
2023-03-11T22:55:44.154Z,100591.03
2023-03-11T22:58:30.370Z,100580.75
2023-03-11T23:01:16.492Z,100584.31
2023-03-11T23:04:05.104Z,100591.34
2023-03-11T23:06:50.178Z,100594.56
2023-03-11T23:09:35.398Z,100594.56
2023-03-11T23:12:20.589Z,100587.38
2023-03-11T23:15:08.855Z,100590.50
2023-03-11T23:17:54.221Z,100587.13
2023-03-11T23:20:40.466Z,100587.16
2023-03-11T23:23:25.604Z,100587.00
2023-03-11T23:26:12.215Z,100583.47
2023-03-11T23:28:59.629Z,100588.34
2023-03-11T23:31:44.477Z,100588.59
2023-03-11T23:34:29.494Z,100589.63
2023-03-11T23:37:14.428Z,100594.19
2023-03-11T23:40:00.697Z,100592.25
2023-03-11T23:42:45.873Z,100593.34
2023-03-11T23:45:30.825Z,100595.53
2023-03-11T23:48:16.807Z,100595.47
2023-03-11T23:51:02.226Z,100596.44
2023-03-11T23:53:47.693Z,100598.78
2023-03-11T23:56:32.925Z,100595.06
2023-03-11T23:59:18.899Z,100604.16
